sensor_id;sensor_type;location;lat;lon;timestamp;temperature;humidity
20827;DHT22;10574;52.508;13.236;2023-07-29T00:01:14;17.90;99.90
20827;DHT22;10574;52.508;13.236;2023-07-29T00:03:42;17.80;99.90
20827;DHT22;10574;52.508;13.236;2023-07-29T00:06:10;17.90;99.90
20827;DHT22;10574;52.508;13.236;2023-07-29T00:08:38;17.80;99.90
20827;DHT22;10574;52.508;13.236;2023-07-29T00:11:05;17.70;99.90
20827;DHT22;10574;52.508;13.236;2023-07-29T00:13:33;17.80;99.90
20827;DHT22;10574;52.508;13.236;2023-07-29T00:16:01;17.70;99.90
20827;DHT22;10574;52.508;13.236;2023-07-29T00:18:28;17.70;99.90
20827;DHT22;10574;52.508;13.236;2023-07-29T00:20:56;17.70;99.90
20827;DHT22;10574;52.508;13.236;2023-07-29T00:23:24;17.60;99.90
20827;DHT22;10574;52.508;13.236;2023-07-29T00:25:51;17.60;99.90
20827;DHT22;10574;52.508;13.236;2023-07-29T00:28:19;17.60;99.90
20827;DHT22;10574;52.508;13.236;2023-07-29T00:30:47;17.60;99.90
20827;DHT22;10574;52.508;13.236;2023-07-29T00:33:15;17.60;99.90
20827;DHT22;10574;52.508;13.236;2023-07-29T00:35:42;17.60;99.90
20827;DHT22;10574;52.508;13.236;2023-07-29T00:38:10;17.60;99.90
20827;DHT22;10574;52.508;13.236;2023-07-29T00:40:38;17.60;99.90
20827;DHT22;10574;52.508;13.236;2023-07-29T00:43:06;17.60;99.90
20827;DHT22;10574;52.508;13.236;2023-07-29T00:45:34;17.60;99.90
20827;DHT22;10574;52.508;13.236;2023-07-29T00:48:05;17.60;99.90
20827;DHT22;10574;52.508;13.236;2023-07-29T00:50:33;17.60;99.90
20827;DHT22;10574;52.508;13.236;2023-07-29T00:53:01;17.60;99.90
20827;DHT22;10574;52.508;13.236;2023-07-29T00:55:29;17.50;99.90
20827;DHT22;10574;52.508;13.236;2023-07-29T00:57:57;17.50;99.90
20827;DHT22;10574;52.508;13.236;2023-07-29T01:00:25;17.50;99.90
20827;DHT22;10574;52.508;13.236;2023-07-29T01:02:53;17.40;99.90
20827;DHT22;10574;52.508;13.236;2023-07-29T01:05:21;17.40;99.90
20827;DHT22;10574;52.508;13.236;2023-07-29T01:07:53;17.40;99.90
20827;DHT22;10574;52.508;13.236;2023-07-29T01:15:51;17.30;99.90
20827;DHT22;10574;52.508;13.236;2023-07-29T01:18:26;17.20;99.90
20827;DHT22;10574;52.508;13.236;2023-07-29T01:20:57;17.30;99.90
20827;DHT22;10574;52.508;13.236;2023-07-29T01:23:31;17.20;99.90
20827;DHT22;10574;52.508;13.236;2023-07-29T01:25:56;17.20;99.90
20827;DHT22;10574;52.508;13.236;2023-07-29T01:28:25;17.00;99.90
20827;DHT22;10574;52.508;13.236;2023-07-29T01:30:57;17.00;99.90
20827;DHT22;10574;52.508;13.236;2023-07-29T01:33:26;16.90;99.90
20827;DHT22;10574;52.508;13.236;2023-07-29T01:36:02;16.90;99.90
20827;DHT22;10574;52.508;13.236;2023-07-29T01:38:33;16.90;99.90
20827;DHT22;10574;52.508;13.236;2023-07-29T01:41:01;16.90;99.90
20827;DHT22;10574;52.508;13.236;2023-07-29T01:43:30;16.90;99.90
20827;DHT22;10574;52.508;13.236;2023-07-29T01:45:58;16.90;99.90
20827;DHT22;10574;52.508;13.236;2023-07-29T01:48:26;16.90;99.90
20827;DHT22;10574;52.508;13.236;2023-07-29T01:50:55;16.90;99.90
20827;DHT22;10574;52.508;13.236;2023-07-29T01:53:23;16.90;99.90
20827;DHT22;10574;52.508;13.236;2023-07-29T01:55:51;16.90;99.90
20827;DHT22;10574;52.508;13.236;2023-07-29T01:58:18;16.90;99.90
20827;DHT22;10574;52.508;13.236;2023-07-29T02:00:46;16.90;99.90
20827;DHT22;10574;52.508;13.236;2023-07-29T02:03:14;16.80;99.90
20827;DHT22;10574;52.508;13.236;2023-07-29T02:05:42;16.70;99.90
20827;DHT22;10574;52.508;13.236;2023-07-29T02:08:10;16.70;99.90
20827;DHT22;10574;52.508;13.236;2023-07-29T02:10:38;16.60;99.90
20827;DHT22;10574;52.508;13.236;2023-07-29T02:13:06;16.60;99.90
20827;DHT22;10574;52.508;13.236;2023-07-29T02:15:33;16.60;99.90
20827;DHT22;10574;52.508;13.236;2023-07-29T02:18:01;16.50;99.90
20827;DHT22;10574;52.508;13.236;2023-07-29T02:20:30;16.50;99.90
20827;DHT22;10574;52.508;13.236;2023-07-29T02:22:57;16.60;99.90
20827;DHT22;10574;52.508;13.236;2023-07-29T02:25:25;16.60;99.90
20827;DHT22;10574;52.508;13.236;2023-07-29T02:27:53;16.60;99.90
20827;DHT22;10574;52.508;13.236;2023-07-29T02:30:21;16.60;99.90
20827;DHT22;10574;52.508;13.236;2023-07-29T02:32:49;16.60;99.90
20827;DHT22;10574;52.508;13.236;2023-07-29T02:35:16;16.60;99.90
20827;DHT22;10574;52.508;13.236;2023-07-29T02:37:45;16.60;99.90
20827;DHT22;10574;52.508;13.236;2023-07-29T02:40:13;16.70;99.90
20827;DHT22;10574;52.508;13.236;2023-07-29T02:42:40;16.70;99.90
20827;DHT22;10574;52.508;13.236;2023-07-29T02:45:08;16.70;99.90
20827;DHT22;10574;52.508;13.236;2023-07-29T02:47:38;16.70;99.90
20827;DHT22;10574;52.508;13.236;2023-07-29T02:50:06;16.70;99.90
20827;DHT22;10574;52.508;13.236;2023-07-29T02:52:34;16.60;99.90
20827;DHT22;10574;52.508;13.236;2023-07-29T02:55:01;16.60;99.90
20827;DHT22;10574;52.508;13.236;2023-07-29T02:57:29;16.60;99.90
20827;DHT22;10574;52.508;13.236;2023-07-29T02:59:57;16.60;99.90
20827;DHT22;10574;52.508;13.236;2023-07-29T03:02:25;16.60;99.90
20827;DHT22;10574;52.508;13.236;2023-07-29T03:04:52;16.50;99.90
20827;DHT22;10574;52.508;13.236;2023-07-29T03:07:20;16.50;99.90
20827;DHT22;10574;52.508;13.236;2023-07-29T03:09:47;16.50;99.90
20827;DHT22;10574;52.508;13.236;2023-07-29T03:12:15;16.50;99.90
20827;DHT22;10574;52.508;13.236;2023-07-29T03:14:43;16.50;99.90
20827;DHT22;10574;52.508;13.236;2023-07-29T03:17:10;16.50;99.90
20827;DHT22;10574;52.508;13.236;2023-07-29T03:19:38;16.50;99.90
20827;DHT22;10574;52.508;13.236;2023-07-29T03:22:05;16.50;99.90
20827;DHT22;10574;52.508;13.236;2023-07-29T03:24:33;16.50;99.90
20827;DHT22;10574;52.508;13.236;2023-07-29T03:27:01;16.50;99.90
20827;DHT22;10574;52.508;13.236;2023-07-29T03:29:28;16.50;99.90
20827;DHT22;10574;52.508;13.236;2023-07-29T03:31:56;16.40;99.90
20827;DHT22;10574;52.508;13.236;2023-07-29T03:34:24;16.40;99.90
20827;DHT22;10574;52.508;13.236;2023-07-29T03:36:52;16.50;99.90
20827;DHT22;10574;52.508;13.236;2023-07-29T03:39:20;16.50;99.90
20827;DHT22;10574;52.508;13.236;2023-07-29T03:41:48;16.50;99.90
20827;DHT22;10574;52.508;13.236;2023-07-29T03:44:16;16.50;99.90
20827;DHT22;10574;52.508;13.236;2023-07-29T03:46:45;16.50;99.90
20827;DHT22;10574;52.508;13.236;2023-07-29T03:49:12;16.50;99.90
20827;DHT22;10574;52.508;13.236;2023-07-29T03:51:40;16.50;99.90
20827;DHT22;10574;52.508;13.236;2023-07-29T03:54:08;16.50;99.90
20827;DHT22;10574;52.508;13.236;2023-07-29T03:56:35;16.60;99.90
20827;DHT22;10574;52.508;13.236;2023-07-29T03:59:05;16.60;99.90
20827;DHT22;10574;52.508;13.236;2023-07-29T04:01:33;16.60;99.90
20827;DHT22;10574;52.508;13.236;2023-07-29T04:04:01;16.60;99.90
20827;DHT22;10574;52.508;13.236;2023-07-29T04:06:28;16.60;99.90
20827;DHT22;10574;52.508;13.236;2023-07-29T04:08:56;16.70;99.90
20827;DHT22;10574;52.508;13.236;2023-07-29T04:11:24;16.70;99.90
20827;DHT22;10574;52.508;13.236;2023-07-29T04:13:52;16.70;99.90
20827;DHT22;10574;52.508;13.236;2023-07-29T04:16:20;16.70;99.90
20827;DHT22;10574;52.508;13.236;2023-07-29T04:18:47;16.80;99.90
20827;DHT22;10574;52.508;13.236;2023-07-29T04:21:15;16.80;99.90
20827;DHT22;10574;52.508;13.236;2023-07-29T04:23:43;16.80;99.90
20827;DHT22;10574;52.508;13.236;2023-07-29T04:26:11;16.90;99.90
20827;DHT22;10574;52.508;13.236;2023-07-29T04:28:38;17.00;99.90
20827;DHT22;10574;52.508;13.236;2023-07-29T04:31:06;17.00;99.90
20827;DHT22;10574;52.508;13.236;2023-07-29T04:33:34;17.10;99.90
20827;DHT22;10574;52.508;13.236;2023-07-29T04:36:01;17.20;99.90
20827;DHT22;10574;52.508;13.236;2023-07-29T04:38:31;17.50;99.90
20827;DHT22;10574;52.508;13.236;2023-07-29T04:40:59;17.90;99.90
20827;DHT22;10574;52.508;13.236;2023-07-29T04:43:32;17.90;99.90
20827;DHT22;10574;52.508;13.236;2023-07-29T04:46:00;17.90;99.90
20827;DHT22;10574;52.508;13.236;2023-07-29T04:48:27;18.00;99.90
20827;DHT22;10574;52.508;13.236;2023-07-29T04:50:55;18.10;99.90
20827;DHT22;10574;52.508;13.236;2023-07-29T04:53:23;18.20;99.90
20827;DHT22;10574;52.508;13.236;2023-07-29T04:55:51;18.30;99.90
20827;DHT22;10574;52.508;13.236;2023-07-29T04:58:18;18.40;99.90
20827;DHT22;10574;52.508;13.236;2023-07-29T05:00:49;18.60;99.90
20827;DHT22;10574;52.508;13.236;2023-07-29T05:03:16;18.80;99.90
20827;DHT22;10574;52.508;13.236;2023-07-29T05:05:44;19.10;99.90
20827;DHT22;10574;52.508;13.236;2023-07-29T05:08:12;19.80;99.90
20827;DHT22;10574;52.508;13.236;2023-07-29T05:10:39;20.30;99.90
20827;DHT22;10574;52.508;13.236;2023-07-29T05:13:07;20.50;99.90
20827;DHT22;10574;52.508;13.236;2023-07-29T05:15:35;20.70;99.90
20827;DHT22;10574;52.508;13.236;2023-07-29T05:18:02;21.30;99.90
20827;DHT22;10574;52.508;13.236;2023-07-29T05:20:30;21.70;99.90
20827;DHT22;10574;52.508;13.236;2023-07-29T05:22:58;22.80;99.90
20827;DHT22;10574;52.508;13.236;2023-07-29T05:25:25;23.80;99.90
20827;DHT22;10574;52.508;13.236;2023-07-29T05:27:53;24.30;99.90
20827;DHT22;10574;52.508;13.236;2023-07-29T05:30:21;24.50;99.90
20827;DHT22;10574;52.508;13.236;2023-07-29T05:32:48;23.90;99.90
20827;DHT22;10574;52.508;13.236;2023-07-29T05:35:16;23.30;99.90
20827;DHT22;10574;52.508;13.236;2023-07-29T05:37:44;22.40;99.90
20827;DHT22;10574;52.508;13.236;2023-07-29T05:40:11;21.70;99.90
20827;DHT22;10574;52.508;13.236;2023-07-29T05:42:39;21.50;99.90
20827;DHT22;10574;52.508;13.236;2023-07-29T05:45:07;21.30;99.90
20827;DHT22;10574;52.508;13.236;2023-07-29T05:47:35;21.70;99.90
20827;DHT22;10574;52.508;13.236;2023-07-29T05:50:03;22.50;99.90
20827;DHT22;10574;52.508;13.236;2023-07-29T05:52:43;23.20;99.90
20827;DHT22;10574;52.508;13.236;2023-07-29T05:55:11;23.90;99.90
20827;DHT22;10574;52.508;13.236;2023-07-29T05:57:38;23.40;99.90
20827;DHT22;10574;52.508;13.236;2023-07-29T06:00:06;23.30;99.90
20827;DHT22;10574;52.508;13.236;2023-07-29T06:02:34;23.40;99.90
20827;DHT22;10574;52.508;13.236;2023-07-29T06:05:02;23.60;99.90
20827;DHT22;10574;52.508;13.236;2023-07-29T06:07:31;23.60;99.90
20827;DHT22;10574;52.508;13.236;2023-07-29T06:10:00;24.20;99.90
20827;DHT22;10574;52.508;13.236;2023-07-29T06:12:28;24.50;99.90
20827;DHT22;10574;52.508;13.236;2023-07-29T06:14:55;24.70;99.90
20827;DHT22;10574;52.508;13.236;2023-07-29T06:17:23;25.00;99.90
20827;DHT22;10574;52.508;13.236;2023-07-29T06:19:51;25.20;99.90
20827;DHT22;10574;52.508;13.236;2023-07-29T06:22:18;25.50;99.90
20827;DHT22;10574;52.508;13.236;2023-07-29T06:24:46;25.40;99.90
20827;DHT22;10574;52.508;13.236;2023-07-29T06:27:14;25.20;99.90
20827;DHT22;10574;52.508;13.236;2023-07-29T06:29:41;25.20;99.90
20827;DHT22;10574;52.508;13.236;2023-07-29T06:32:09;25.10;99.90
20827;DHT22;10574;52.508;13.236;2023-07-29T06:34:36;25.10;99.90
20827;DHT22;10574;52.508;13.236;2023-07-29T06:37:04;24.90;99.90
20827;DHT22;10574;52.508;13.236;2023-07-29T06:39:32;24.70;99.90
20827;DHT22;10574;52.508;13.236;2023-07-29T06:41:59;24.70;99.90
20827;DHT22;10574;52.508;13.236;2023-07-29T06:44:28;24.40;99.90
20827;DHT22;10574;52.508;13.236;2023-07-29T06:46:57;24.20;99.90
20827;DHT22;10574;52.508;13.236;2023-07-29T06:49:24;24.20;99.90
20827;DHT22;10574;52.508;13.236;2023-07-29T06:51:52;24.30;99.90
20827;DHT22;10574;52.508;13.236;2023-07-29T06:54:26;24.20;99.90
20827;DHT22;10574;52.508;13.236;2023-07-29T06:56:50;23.90;99.90
20827;DHT22;10574;52.508;13.236;2023-07-29T06:59:18;23.50;99.90
20827;DHT22;10574;52.508;13.236;2023-07-29T07:01:46;23.00;99.90
20827;DHT22;10574;52.508;13.236;2023-07-29T07:04:13;22.90;99.90
20827;DHT22;10574;52.508;13.236;2023-07-29T07:06:41;22.90;99.90
20827;DHT22;10574;52.508;13.236;2023-07-29T07:09:09;22.90;99.90
20827;DHT22;10574;52.508;13.236;2023-07-29T07:11:37;22.90;99.90
20827;DHT22;10574;52.508;13.236;2023-07-29T07:14:04;23.20;99.90
20827;DHT22;10574;52.508;13.236;2023-07-29T07:16:32;23.50;99.90
20827;DHT22;10574;52.508;13.236;2023-07-29T07:18:59;23.60;99.90
20827;DHT22;10574;52.508;13.236;2023-07-29T07:21:27;23.70;99.90
20827;DHT22;10574;52.508;13.236;2023-07-29T07:23:54;23.80;99.90
20827;DHT22;10574;52.508;13.236;2023-07-29T07:26:22;23.90;99.90
20827;DHT22;10574;52.508;13.236;2023-07-29T07:28:50;24.00;99.90
20827;DHT22;10574;52.508;13.236;2023-07-29T07:31:18;23.90;99.90
20827;DHT22;10574;52.508;13.236;2023-07-29T07:33:45;23.90;99.90
20827;DHT22;10574;52.508;13.236;2023-07-29T07:36:13;24.10;99.90
20827;DHT22;10574;52.508;13.236;2023-07-29T07:38:42;24.00;99.90
20827;DHT22;10574;52.508;13.236;2023-07-29T07:41:09;23.90;99.90
20827;DHT22;10574;52.508;13.236;2023-07-29T07:43:37;23.80;99.90
20827;DHT22;10574;52.508;13.236;2023-07-29T07:46:05;24.10;99.90
20827;DHT22;10574;52.508;13.236;2023-07-29T07:48:33;24.30;99.90
20827;DHT22;10574;52.508;13.236;2023-07-29T07:51:04;24.60;99.90
20827;DHT22;10574;52.508;13.236;2023-07-29T07:53:30;24.90;99.90
20827;DHT22;10574;52.508;13.236;2023-07-29T07:55:57;24.70;99.90
20827;DHT22;10574;52.508;13.236;2023-07-29T07:58:25;24.80;99.90
20827;DHT22;10574;52.508;13.236;2023-07-29T08:00:53;24.70;99.90
20827;DHT22;10574;52.508;13.236;2023-07-29T08:03:23;24.90;99.90
20827;DHT22;10574;52.508;13.236;2023-07-29T08:05:50;25.10;99.90
20827;DHT22;10574;52.508;13.236;2023-07-29T08:08:18;25.00;99.90
20827;DHT22;10574;52.508;13.236;2023-07-29T08:10:46;24.80;99.90
20827;DHT22;10574;52.508;13.236;2023-07-29T08:13:13;24.70;99.90
20827;DHT22;10574;52.508;13.236;2023-07-29T08:15:41;24.30;99.90
20827;DHT22;10574;52.508;13.236;2023-07-29T08:18:08;24.10;99.90
20827;DHT22;10574;52.508;13.236;2023-07-29T08:20:36;24.00;99.90
20827;DHT22;10574;52.508;13.236;2023-07-29T08:23:04;23.90;99.90
20827;DHT22;10574;52.508;13.236;2023-07-29T08:25:32;23.90;99.90
20827;DHT22;10574;52.508;13.236;2023-07-29T08:27:59;23.90;99.90
20827;DHT22;10574;52.508;13.236;2023-07-29T08:30:27;23.80;99.90
20827;DHT22;10574;52.508;13.236;2023-07-29T08:32:55;23.80;99.90
20827;DHT22;10574;52.508;13.236;2023-07-29T08:35:22;23.70;99.90
20827;DHT22;10574;52.508;13.236;2023-07-29T08:37:50;23.70;99.90
20827;DHT22;10574;52.508;13.236;2023-07-29T08:40:18;23.80;99.90
20827;DHT22;10574;52.508;13.236;2023-07-29T08:42:47;23.80;99.90
20827;DHT22;10574;52.508;13.236;2023-07-29T08:45:17;23.70;99.90
20827;DHT22;10574;52.508;13.236;2023-07-29T08:47:45;23.70;99.90
20827;DHT22;10574;52.508;13.236;2023-07-29T08:50:14;23.70;99.90
20827;DHT22;10574;52.508;13.236;2023-07-29T08:52:43;23.60;99.90
20827;DHT22;10574;52.508;13.236;2023-07-29T08:55:11;23.50;99.90
20827;DHT22;10574;52.508;13.236;2023-07-29T08:57:40;23.40;99.90
20827;DHT22;10574;52.508;13.236;2023-07-29T09:00:09;23.40;99.90
20827;DHT22;10574;52.508;13.236;2023-07-29T09:02:37;23.40;99.90
20827;DHT22;10574;52.508;13.236;2023-07-29T09:05:10;23.60;99.90
20827;DHT22;10574;52.508;13.236;2023-07-29T09:07:57;23.60;99.90
20827;DHT22;10574;52.508;13.236;2023-07-29T09:10:47;23.60;99.90
20827;DHT22;10574;52.508;13.236;2023-07-29T09:13:15;23.60;99.90
20827;DHT22;10574;52.508;13.236;2023-07-29T09:15:49;23.60;99.90
20827;DHT22;10574;52.508;13.236;2023-07-29T09:18:21;23.60;99.90
20827;DHT22;10574;52.508;13.236;2023-07-29T09:20:50;23.70;99.90
20827;DHT22;10574;52.508;13.236;2023-07-29T09:23:17;23.80;99.90
20827;DHT22;10574;52.508;13.236;2023-07-29T09:25:48;24.00;99.90
20827;DHT22;10574;52.508;13.236;2023-07-29T09:28:16;24.30;99.90
20827;DHT22;10574;52.508;13.236;2023-07-29T09:30:46;24.40;99.90
20827;DHT22;10574;52.508;13.236;2023-07-29T09:33:13;24.60;99.90
20827;DHT22;10574;52.508;13.236;2023-07-29T09:35:41;24.50;99.90
20827;DHT22;10574;52.508;13.236;2023-07-29T09:38:13;24.30;99.90
20827;DHT22;10574;52.508;13.236;2023-07-29T09:40:40;24.30;99.90
20827;DHT22;10574;52.508;13.236;2023-07-29T09:43:09;24.30;99.90
20827;DHT22;10574;52.508;13.236;2023-07-29T09:45:38;24.30;99.90
20827;DHT22;10574;52.508;13.236;2023-07-29T09:48:05;24.30;99.90
20827;DHT22;10574;52.508;13.236;2023-07-29T09:50:35;24.40;99.90
20827;DHT22;10574;52.508;13.236;2023-07-29T09:53:03;24.50;99.90
20827;DHT22;10574;52.508;13.236;2023-07-29T09:55:33;24.60;99.90
20827;DHT22;10574;52.508;13.236;2023-07-29T09:58:01;24.80;99.90
20827;DHT22;10574;52.508;13.236;2023-07-29T10:00:32;24.90;99.90
20827;DHT22;10574;52.508;13.236;2023-07-29T10:03:00;24.70;99.90
20827;DHT22;10574;52.508;13.236;2023-07-29T10:05:28;24.40;99.90
20827;DHT22;10574;52.508;13.236;2023-07-29T10:07:56;24.10;99.90
20827;DHT22;10574;52.508;13.236;2023-07-29T10:10:24;24.00;99.90
20827;DHT22;10574;52.508;13.236;2023-07-29T10:12:54;24.00;99.90
20827;DHT22;10574;52.508;13.236;2023-07-29T10:15:22;24.20;99.90
20827;DHT22;10574;52.508;13.236;2023-07-29T10:17:50;24.20;99.90
20827;DHT22;10574;52.508;13.236;2023-07-29T10:20:19;24.10;99.90
20827;DHT22;10574;52.508;13.236;2023-07-29T10:22:47;24.10;99.90
20827;DHT22;10574;52.508;13.236;2023-07-29T10:25:24;24.00;99.90
20827;DHT22;10574;52.508;13.236;2023-07-29T10:27:55;23.80;99.90
20827;DHT22;10574;52.508;13.236;2023-07-29T10:30:24;23.80;99.90
20827;DHT22;10574;52.508;13.236;2023-07-29T10:32:52;23.80;99.90
20827;DHT22;10574;52.508;13.236;2023-07-29T10:35:20;23.80;99.90
20827;DHT22;10574;52.508;13.236;2023-07-29T10:37:48;23.70;99.90
20827;DHT22;10574;52.508;13.236;2023-07-29T10:40:17;23.80;99.90
20827;DHT22;10574;52.508;13.236;2023-07-29T10:43:03;23.80;99.90
20827;DHT22;10574;52.508;13.236;2023-07-29T10:45:38;23.80;99.90
20827;DHT22;10574;52.508;13.236;2023-07-29T10:50:42;23.90;99.90
20827;DHT22;10574;52.508;13.236;2023-07-29T10:53:10;23.80;99.90
20827;DHT22;10574;52.508;13.236;2023-07-29T10:55:38;23.90;99.90
20827;DHT22;10574;52.508;13.236;2023-07-29T10:58:15;23.80;99.90
20827;DHT22;10574;52.508;13.236;2023-07-29T11:00:46;23.70;99.90
20827;DHT22;10574;52.508;13.236;2023-07-29T11:03:14;23.70;99.90
20827;DHT22;10574;52.508;13.236;2023-07-29T11:05:48;23.50;99.90
20827;DHT22;10574;52.508;13.236;2023-07-29T11:08:20;22.90;99.90
20827;DHT22;10574;52.508;13.236;2023-07-29T11:41:25;20.10;99.90
20827;DHT22;10574;52.508;13.236;2023-07-29T11:43:53;20.60;99.90
20827;DHT22;10574;52.508;13.236;2023-07-29T11:46:22;20.70;99.90
20827;DHT22;10574;52.508;13.236;2023-07-29T11:48:49;20.60;99.90
20827;DHT22;10574;52.508;13.236;2023-07-29T11:54:05;20.60;99.90
20827;DHT22;10574;52.508;13.236;2023-07-29T11:56:33;20.50;99.90
20827;DHT22;10574;52.508;13.236;2023-07-29T11:59:02;20.40;99.90
20827;DHT22;10574;52.508;13.236;2023-07-29T12:01:31;20.50;99.90
20827;DHT22;10574;52.508;13.236;2023-07-29T12:04:00;20.60;99.90
20827;DHT22;10574;52.508;13.236;2023-07-29T12:06:28;20.70;99.90
20827;DHT22;10574;52.508;13.236;2023-07-29T12:08:58;20.80;99.90
20827;DHT22;10574;52.508;13.236;2023-07-29T12:11:26;20.90;99.90
20827;DHT22;10574;52.508;13.236;2023-07-29T12:13:54;21.00;99.90
20827;DHT22;10574;52.508;13.236;2023-07-29T12:16:22;21.10;99.90
20827;DHT22;10574;52.508;13.236;2023-07-29T12:18:50;21.10;99.90
20827;DHT22;10574;52.508;13.236;2023-07-29T12:21:21;21.10;99.90
20827;DHT22;10574;52.508;13.236;2023-07-29T12:23:50;21.10;99.90
20827;DHT22;10574;52.508;13.236;2023-07-29T12:26:18;21.20;99.90
20827;DHT22;10574;52.508;13.236;2023-07-29T12:28:47;21.20;99.90
20827;DHT22;10574;52.508;13.236;2023-07-29T12:31:15;21.30;99.90
20827;DHT22;10574;52.508;13.236;2023-07-29T12:33:43;21.20;99.90
20827;DHT22;10574;52.508;13.236;2023-07-29T12:36:11;21.20;99.90
20827;DHT22;10574;52.508;13.236;2023-07-29T12:38:39;21.20;99.90
20827;DHT22;10574;52.508;13.236;2023-07-29T12:41:06;21.40;99.90
20827;DHT22;10574;52.508;13.236;2023-07-29T12:43:34;21.60;99.90
20827;DHT22;10574;52.508;13.236;2023-07-29T12:46:02;21.70;99.90
20827;DHT22;10574;52.508;13.236;2023-07-29T12:48:29;21.80;99.90
20827;DHT22;10574;52.508;13.236;2023-07-29T12:50:57;22.10;99.90
20827;DHT22;10574;52.508;13.236;2023-07-29T12:53:25;22.20;99.90
20827;DHT22;10574;52.508;13.236;2023-07-29T12:55:53;22.50;99.90
20827;DHT22;10574;52.508;13.236;2023-07-29T12:58:20;22.50;99.90
20827;DHT22;10574;52.508;13.236;2023-07-29T13:00:48;22.60;99.90
20827;DHT22;10574;52.508;13.236;2023-07-29T13:03:16;22.70;99.90
20827;DHT22;10574;52.508;13.236;2023-07-29T13:05:43;22.70;99.90
20827;DHT22;10574;52.508;13.236;2023-07-29T13:08:11;22.70;99.90
20827;DHT22;10574;52.508;13.236;2023-07-29T13:10:38;22.50;99.90
20827;DHT22;10574;52.508;13.236;2023-07-29T13:13:06;22.40;99.90
20827;DHT22;10574;52.508;13.236;2023-07-29T13:15:34;22.60;99.90
20827;DHT22;10574;52.508;13.236;2023-07-29T13:18:01;22.90;99.90
20827;DHT22;10574;52.508;13.236;2023-07-29T13:20:30;23.10;99.90
20827;DHT22;10574;52.508;13.236;2023-07-29T13:22:59;23.30;99.90
20827;DHT22;10574;52.508;13.236;2023-07-29T13:25:27;23.40;99.90
20827;DHT22;10574;52.508;13.236;2023-07-29T13:27:55;23.60;99.90
20827;DHT22;10574;52.508;13.236;2023-07-29T13:30:23;23.80;99.90
20827;DHT22;10574;52.508;13.236;2023-07-29T13:32:50;23.80;99.90
20827;DHT22;10574;52.508;13.236;2023-07-29T13:35:18;23.80;99.90
20827;DHT22;10574;52.508;13.236;2023-07-29T13:37:46;23.80;99.90
20827;DHT22;10574;52.508;13.236;2023-07-29T13:40:13;23.80;99.90
20827;DHT22;10574;52.508;13.236;2023-07-29T13:42:41;23.80;99.90
20827;DHT22;10574;52.508;13.236;2023-07-29T13:45:09;23.80;99.90
20827;DHT22;10574;52.508;13.236;2023-07-29T13:47:37;23.70;99.90
20827;DHT22;10574;52.508;13.236;2023-07-29T13:50:06;23.70;99.90
20827;DHT22;10574;52.508;13.236;2023-07-29T13:52:36;23.60;99.90
20827;DHT22;10574;52.508;13.236;2023-07-29T13:55:05;23.60;99.90
20827;DHT22;10574;52.508;13.236;2023-07-29T13:57:33;23.60;99.90
20827;DHT22;10574;52.508;13.236;2023-07-29T14:00:01;23.60;99.90
20827;DHT22;10574;52.508;13.236;2023-07-29T14:02:29;23.70;99.90
20827;DHT22;10574;52.508;13.236;2023-07-29T14:04:58;23.80;99.90
20827;DHT22;10574;52.508;13.236;2023-07-29T14:07:25;23.80;99.90
20827;DHT22;10574;52.508;13.236;2023-07-29T14:09:53;24.00;99.90
20827;DHT22;10574;52.508;13.236;2023-07-29T14:12:21;24.10;99.90
20827;DHT22;10574;52.508;13.236;2023-07-29T14:14:48;24.10;99.90
20827;DHT22;10574;52.508;13.236;2023-07-29T14:17:16;24.00;99.90
20827;DHT22;10574;52.508;13.236;2023-07-29T14:19:44;24.00;99.90
20827;DHT22;10574;52.508;13.236;2023-07-29T14:22:12;23.80;99.90
20827;DHT22;10574;52.508;13.236;2023-07-29T14:24:40;23.80;99.90
20827;DHT22;10574;52.508;13.236;2023-07-29T14:27:07;23.90;99.90
20827;DHT22;10574;52.508;13.236;2023-07-29T14:29:35;24.10;99.90
20827;DHT22;10574;52.508;13.236;2023-07-29T14:32:03;24.40;99.90
20827;DHT22;10574;52.508;13.236;2023-07-29T14:34:31;24.60;99.90
20827;DHT22;10574;52.508;13.236;2023-07-29T14:37:00;24.80;99.90
20827;DHT22;10574;52.508;13.236;2023-07-29T14:39:29;24.90;99.90
20827;DHT22;10574;52.508;13.236;2023-07-29T14:41:57;25.00;99.90
20827;DHT22;10574;52.508;13.236;2023-07-29T14:44:24;24.80;99.90
20827;DHT22;10574;52.508;13.236;2023-07-29T14:46:52;24.60;99.90
20827;DHT22;10574;52.508;13.236;2023-07-29T14:49:20;24.40;99.90
20827;DHT22;10574;52.508;13.236;2023-07-29T14:51:49;24.20;99.90
20827;DHT22;10574;52.508;13.236;2023-07-29T14:54:16;24.00;99.90
20827;DHT22;10574;52.508;13.236;2023-07-29T14:56:46;24.00;99.90
20827;DHT22;10574;52.508;13.236;2023-07-29T14:59:13;23.90;99.90
20827;DHT22;10574;52.508;13.236;2023-07-29T15:01:41;23.80;99.90
20827;DHT22;10574;52.508;13.236;2023-07-29T15:04:09;23.80;99.90
20827;DHT22;10574;52.508;13.236;2023-07-29T15:06:36;23.70;99.90
20827;DHT22;10574;52.508;13.236;2023-07-29T15:09:05;23.60;99.90
20827;DHT22;10574;52.508;13.236;2023-07-29T15:11:34;23.40;99.90
20827;DHT22;10574;52.508;13.236;2023-07-29T15:14:02;23.40;99.90
20827;DHT22;10574;52.508;13.236;2023-07-29T15:16:31;23.30;99.90
20827;DHT22;10574;52.508;13.236;2023-07-29T15:19:01;23.10;99.90
20827;DHT22;10574;52.508;13.236;2023-07-29T15:21:31;23.00;99.90
20827;DHT22;10574;52.508;13.236;2023-07-29T15:24:01;22.90;99.90
20827;DHT22;10574;52.508;13.236;2023-07-29T15:26:28;22.30;99.90
20827;DHT22;10574;52.508;13.236;2023-07-29T15:28:57;21.40;99.90
20827;DHT22;10574;52.508;13.236;2023-07-29T15:31:25;20.60;99.90
20827;DHT22;10574;52.508;13.236;2023-07-29T15:33:53;19.80;99.90
20827;DHT22;10574;52.508;13.236;2023-07-29T15:36:20;19.40;99.90
20827;DHT22;10574;52.508;13.236;2023-07-29T15:38:48;19.10;99.90
20827;DHT22;10574;52.508;13.236;2023-07-29T15:41:16;18.90;99.90
20827;DHT22;10574;52.508;13.236;2023-07-29T15:43:44;18.80;99.90
20827;DHT22;10574;52.508;13.236;2023-07-29T15:46:12;18.80;99.90
20827;DHT22;10574;52.508;13.236;2023-07-29T15:48:39;18.70;99.90
20827;DHT22;10574;52.508;13.236;2023-07-29T15:51:07;18.70;99.90
20827;DHT22;10574;52.508;13.236;2023-07-29T15:53:35;18.90;99.90
20827;DHT22;10574;52.508;13.236;2023-07-29T15:56:03;18.90;99.90
20827;DHT22;10574;52.508;13.236;2023-07-29T15:58:30;19.00;99.90
20827;DHT22;10574;52.508;13.236;2023-07-29T16:00:58;19.10;99.90
20827;DHT22;10574;52.508;13.236;2023-07-29T16:03:25;19.40;99.90